CheckWX is a tool to help pilots better visualize weather data.  It is not intended as a substitute for an official pre-flight weather briefing.

13:50:48 UTC

EVRA METAR
Riga International Airport
Riga, Latvia
Current

31 mins ago

EVRA 091320Z 28006KT 250V330 9999 FEW042 18/06 Q1013 NOSIG
Observed
Jul-9 @ 13:20 UTC
Wind
  • 280° at 6 KTS
Visibility
10,000+ meters
Flight Rules
VFR
Cloud Levels
  • Few at 4,200' AGL
Temperature
18°C / 64°F
Dewpoint
C / 43°F
Humidity
46%
Altimeter
29.91" Hg
Pressure
1012.92 hPa
Previous

1 hour ago

EVRA 091250Z 20007KT 9999 FEW050CB 18/10 Q1013 NOSIG
Observed
Jul-9 @ 12:50 UTC
Wind
  • 200° at 7 KTS
Visibility
10,000+ meters
Flight Rules
VFR
Cloud Levels
  • Few at 5,000' AGL
Temperature
18°C / 64°F
Dewpoint
10°C / 50°F
Humidity
60%
Altimeter
29.91" Hg
Pressure
1012.92 hPa
Previous

2 hours ago

EVRA 091220Z 23004KT 180V320 9999 FEW060CB 19/10 Q1013 NOSIG
Observed
Jul-9 @ 12:20 UTC
Wind
  • 230° at 4 KTS
Visibility
10,000+ meters
Flight Rules
VFR
Cloud Levels
  • Few at 6,000' AGL
Temperature
19°C / 66°F
Dewpoint
10°C / 50°F
Humidity
56%
Altimeter
29.91" Hg
Pressure
1012.92 hPa